createdAt,value
2023-05-05T00:00:45.023Z,0.10
2023-05-05T00:01:45.012Z,0.10
2023-05-05T00:02:45.092Z,0.00
2023-05-05T00:03:45.031Z,0.10
2023-05-05T00:04:44.996Z,0.10
2023-05-05T00:05:44.957Z,0.10
2023-05-05T00:06:44.941Z,0.10
2023-05-05T00:07:44.929Z,0.10
2023-05-05T00:08:44.915Z,0.10
2023-05-05T00:09:44.910Z,0.10
2023-05-05T00:10:44.887Z,0.10
2023-05-05T00:11:44.885Z,0.10
2023-05-05T00:12:44.891Z,0.10
2023-05-05T00:13:44.852Z,0.10
2023-05-05T00:14:44.837Z,0.10
2023-05-05T00:15:44.831Z,0.10
2023-05-05T00:16:44.862Z,0.10
2023-05-05T00:17:44.851Z,0.10
2023-05-05T00:18:44.786Z,0.10
2023-05-05T00:19:44.777Z,0.10
2023-05-05T00:20:44.787Z,0.10
2023-05-05T00:21:44.749Z,0.10
2023-05-05T00:22:44.736Z,0.10
2023-05-05T00:23:44.719Z,0.10
2023-05-05T00:24:44.707Z,0.10
2023-05-05T00:25:44.702Z,0.10
2023-05-05T00:26:44.687Z,0.00
2023-05-05T00:27:44.670Z,0.10
2023-05-05T00:28:44.658Z,0.10
2023-05-05T00:29:44.647Z,0.10
2023-05-05T00:30:44.650Z,0.10
2023-05-05T00:31:44.626Z,0.10
2023-05-05T00:32:44.646Z,0.10
2023-05-05T00:33:44.595Z,0.10
2023-05-05T00:34:44.583Z,0.10
2023-05-05T00:35:44.573Z,0.10
2023-05-05T00:36:44.578Z,0.10
2023-05-05T00:37:44.544Z,0.10
2023-05-05T00:38:44.532Z,0.10
2023-05-05T00:39:44.519Z,0.10
2023-05-05T00:40:44.505Z,0.10
2023-05-05T00:41:44.492Z,0.10
2023-05-05T00:42:44.486Z,0.10
2023-05-05T00:43:44.485Z,0.10
2023-05-05T00:44:44.454Z,0.10
2023-05-05T00:45:44.454Z,0.10
2023-05-05T00:46:44.482Z,0.10
2023-05-05T00:47:44.432Z,0.10
2023-05-05T00:48:44.401Z,0.10
2023-05-05T00:49:44.386Z,0.10
2023-05-05T00:50:44.376Z,0.10
2023-05-05T00:51:44.401Z,0.10
2023-05-05T00:52:44.376Z,0.10
2023-05-05T00:53:44.338Z,0.10
2023-05-05T00:54:44.324Z,0.10
2023-05-05T00:55:44.315Z,0.10
2023-05-05T00:56:44.300Z,0.10
2023-05-05T00:57:44.290Z,0.10
2023-05-05T00:58:44.300Z,0.00
2023-05-05T00:59:44.262Z,0.10
2023-05-05T01:00:44.250Z,0.10
2023-05-05T01:01:44.269Z,0.10
2023-05-05T01:02:44.288Z,0.10
2023-05-05T01:03:44.314Z,0.10
2023-05-05T01:04:44.195Z,0.10
2023-05-05T01:05:44.183Z,0.10
2023-05-05T01:06:44.168Z,0.10
2023-05-05T01:07:44.166Z,0.00
2023-05-05T01:08:44.165Z,0.10
2023-05-05T01:09:44.127Z,0.10
2023-05-05T01:10:44.114Z,0.10
2023-05-05T01:11:44.103Z,0.00
2023-05-05T01:12:44.117Z,0.10
2023-05-05T01:13:44.077Z,0.10
2023-05-05T01:14:44.064Z,0.10
2023-05-05T01:15:44.051Z,0.10
2023-05-05T01:16:44.076Z,0.10
2023-05-05T01:17:44.068Z,0.10
2023-05-05T01:18:44.011Z,0.10
2023-05-05T01:19:43.997Z,0.10
2023-05-05T01:20:43.984Z,0.10
2023-05-05T01:21:43.971Z,0.10
2023-05-05T01:22:43.955Z,0.10
2023-05-05T01:23:43.947Z,0.10
2023-05-05T01:24:43.954Z,0.10
2023-05-05T01:25:43.928Z,0.10
2023-05-05T01:26:43.905Z,0.10
2023-05-05T01:27:43.902Z,0.10
2023-05-05T01:28:43.885Z,0.10
2023-05-05T01:29:43.869Z,0.10
2023-05-05T01:30:43.871Z,0.10
2023-05-05T01:31:43.861Z,0.10
2023-05-05T01:32:43.869Z,0.10
2023-05-05T01:33:43.815Z,0.10
2023-05-05T01:34:43.801Z,0.10
2023-05-05T01:35:43.798Z,0.10
2023-05-05T01:36:43.774Z,0.10
2023-05-05T01:37:43.759Z,0.10
2023-05-05T01:38:43.757Z,0.10
2023-05-05T01:39:43.744Z,0.10
2023-05-05T01:40:43.744Z,0.10
2023-05-05T01:41:43.712Z,0.10
2023-05-05T01:42:43.696Z,0.10
2023-05-05T01:43:43.684Z,0.10
2023-05-05T01:44:43.672Z,0.10
2023-05-05T01:45:43.713Z,0.10
2023-05-05T01:46:43.647Z,0.10
2023-05-05T01:47:43.654Z,0.10
2023-05-05T01:48:43.620Z,0.10
2023-05-05T01:49:43.607Z,0.10
2023-05-05T01:50:43.588Z,0.10
2023-05-05T01:51:43.581Z,0.10
2023-05-05T01:52:43.566Z,0.10
2023-05-05T01:53:43.556Z,0.10
2023-05-05T01:54:43.540Z,0.10
2023-05-05T01:55:43.536Z,0.00
2023-05-05T01:56:43.540Z,0.10
2023-05-05T01:57:43.502Z,0.10
2023-05-05T01:58:43.487Z,0.10
2023-05-05T01:59:43.485Z,0.10
2023-05-05T02:00:43.470Z,0.10
2023-05-05T02:01:43.494Z,0.10
2023-05-05T02:02:43.555Z,0.10
2023-05-05T02:03:43.420Z,0.10
2023-05-05T02:04:43.424Z,0.10
2023-05-05T02:05:43.407Z,0.00
2023-05-05T02:06:43.382Z,0.10
2023-05-05T02:07:43.373Z,0.10
2023-05-05T02:09:43.369Z,0.10
2023-05-05T02:10:43.345Z,0.10
2023-05-05T02:11:43.335Z,0.10
2023-05-05T02:12:43.341Z,0.10
2023-05-05T02:13:43.375Z,0.10
2023-05-05T02:14:43.285Z,0.10
2023-05-05T02:15:43.326Z,0.10
2023-05-05T02:16:43.256Z,0.10
2023-05-05T02:17:43.334Z,0.10
2023-05-05T02:18:43.232Z,0.10
2023-05-05T02:19:43.220Z,0.10
2023-05-05T02:20:43.213Z,0.10
2023-05-05T02:21:43.198Z,0.10
2023-05-05T02:22:43.192Z,0.10
2023-05-05T02:23:43.169Z,0.10
2023-05-05T02:24:43.156Z,0.10
2023-05-05T02:25:43.163Z,0.10
2023-05-05T02:26:43.133Z,0.10
2023-05-05T02:27:43.120Z,0.10
2023-05-05T02:28:43.130Z,0.10
2023-05-05T02:29:43.091Z,0.10
2023-05-05T02:30:43.080Z,0.10
2023-05-05T02:31:43.152Z,0.10
2023-05-05T02:32:43.084Z,0.10
2023-05-05T02:33:43.042Z,0.10
2023-05-05T02:34:43.030Z,0.10
2023-05-05T02:35:43.015Z,0.10
2023-05-05T02:36:43.008Z,0.10
2023-05-05T02:37:42.992Z,0.10
2023-05-05T02:38:42.980Z,0.10
2023-05-05T02:39:42.964Z,0.10
2023-05-05T02:40:42.963Z,0.10
2023-05-05T02:41:42.941Z,0.10
2023-05-05T02:42:42.950Z,0.10
2023-05-05T02:43:42.916Z,0.10
2023-05-05T02:44:42.921Z,0.10
2023-05-05T02:45:42.887Z,0.10
2023-05-05T02:46:42.913Z,0.10
2023-05-05T02:47:42.883Z,0.10
2023-05-05T02:48:42.847Z,0.10
2023-05-05T02:49:42.841Z,0.10
2023-05-05T02:50:42.824Z,0.10
2023-05-05T02:51:42.809Z,0.10
2023-05-05T02:52:42.793Z,0.10
2023-05-05T02:53:42.785Z,0.10
2023-05-05T02:54:42.767Z,0.10
2023-05-05T02:55:42.757Z,0.10
2023-05-05T02:56:42.761Z,0.00
2023-05-05T02:57:42.741Z,0.10
2023-05-05T02:58:42.713Z,0.10
2023-05-05T02:59:42.702Z,0.10
2023-05-05T03:00:42.716Z,0.10
2023-05-05T03:01:42.704Z,0.10
2023-05-05T03:02:42.731Z,0.10
2023-05-05T03:03:42.754Z,0.10
2023-05-05T03:04:42.643Z,0.10
2023-05-05T03:05:42.628Z,0.10
2023-05-05T03:06:42.624Z,0.10
2023-05-05T03:07:42.601Z,0.10
2023-05-05T03:08:42.590Z,0.10
2023-05-05T03:09:42.574Z,0.10
2023-05-05T03:10:42.568Z,0.10
2023-05-05T03:11:42.550Z,0.10
2023-05-05T03:12:42.572Z,0.10
2023-05-05T03:13:42.523Z,0.10
2023-05-05T03:14:42.507Z,0.10
2023-05-05T03:15:42.500Z,0.10
2023-05-05T03:16:42.658Z,0.10
2023-05-05T03:17:42.529Z,0.10
2023-05-05T03:18:42.518Z,0.10
2023-05-05T03:19:42.451Z,0.10
2023-05-05T03:20:42.430Z,0.10
2023-05-05T03:21:42.421Z,0.10
2023-05-05T03:22:42.405Z,0.10
2023-05-05T03:23:42.395Z,0.10
2023-05-05T03:25:42.363Z,0.10
2023-05-05T03:26:42.359Z,0.10
2023-05-05T03:27:42.349Z,0.10
2023-05-05T03:28:42.322Z,0.10
2023-05-05T03:29:42.316Z,0.10
2023-05-05T03:30:42.298Z,0.10
2023-05-05T03:31:42.359Z,0.10
2023-05-05T03:32:42.317Z,0.10
2023-05-05T03:33:42.266Z,0.00
2023-05-05T03:34:42.247Z,0.10
2023-05-05T03:35:42.238Z,0.10
2023-05-05T03:36:42.224Z,0.10
2023-05-05T03:37:42.210Z,0.10
2023-05-05T03:38:42.207Z,0.10
2023-05-05T03:39:42.181Z,0.00
2023-05-05T03:40:44.585Z,0.10
2023-05-05T03:41:42.158Z,0.10
2023-05-05T03:42:42.142Z,0.10
2023-05-05T03:43:42.126Z,0.10
2023-05-05T03:44:42.114Z,0.10
2023-05-05T03:45:42.157Z,0.10
2023-05-05T03:46:42.094Z,0.10
2023-05-05T03:47:42.105Z,0.10
2023-05-05T03:48:42.106Z,0.10
2023-05-05T03:49:42.048Z,0.10
2023-05-05T03:50:42.036Z,0.10
2023-05-05T03:51:42.022Z,0.10
2023-05-05T03:52:42.012Z,1.79
2023-05-05T03:53:42.003Z,0.70
2023-05-05T03:54:41.986Z,0.10
2023-05-05T03:55:41.980Z,0.10
2023-05-05T03:56:41.958Z,0.10
2023-05-05T03:57:41.946Z,0.20
2023-05-05T03:58:41.938Z,0.10
2023-05-05T03:59:41.926Z,0.10
2023-05-05T04:00:41.917Z,0.10
2023-05-05T04:01:41.922Z,0.10
2023-05-05T04:02:41.947Z,0.10
2023-05-05T04:03:41.935Z,6.90
2023-05-05T04:04:41.925Z,0.20
2023-05-05T04:05:41.847Z,0.10
2023-05-05T04:06:41.838Z,0.10
2023-05-05T04:07:41.841Z,0.10
2023-05-05T04:08:41.821Z,0.10
2023-05-05T04:09:41.792Z,0.10
2023-05-05T04:10:41.785Z,0.10
2023-05-05T04:11:41.770Z,0.10
2023-05-05T04:12:41.777Z,0.10
2023-05-05T04:13:41.751Z,0.10
2023-05-05T04:14:41.735Z,4.69
2023-05-05T04:15:41.729Z,0.10
2023-05-05T04:16:41.715Z,0.10
2023-05-05T04:17:41.765Z,0.10
2023-05-05T04:18:41.693Z,0.10
2023-05-05T04:19:41.671Z,0.10
2023-05-05T04:20:41.700Z,0.10
2023-05-05T04:21:41.643Z,0.20
2023-05-05T04:22:41.629Z,0.10
2023-05-05T04:23:41.622Z,0.10
2023-05-05T04:24:41.606Z,1.79
2023-05-05T04:25:41.589Z,6.90
2023-05-05T04:26:41.580Z,7.30
2023-05-05T04:27:41.562Z,7.59
2023-05-05T04:28:41.553Z,7.50
2023-05-05T04:29:41.546Z,7.30
2023-05-05T04:30:41.525Z,6.90
2023-05-05T04:31:41.583Z,6.00
2023-05-05T04:32:41.528Z,6.50
2023-05-05T04:33:41.490Z,6.80
2023-05-05T04:34:41.484Z,6.59
2023-05-05T04:35:41.456Z,6.69
2023-05-05T04:36:41.483Z,6.90
2023-05-05T04:37:41.439Z,6.90
2023-05-05T04:38:41.482Z,6.00
2023-05-05T04:39:41.412Z,6.09
2023-05-05T04:40:41.396Z,6.69
2023-05-05T04:41:41.383Z,6.40
2023-05-05T04:42:41.383Z,7.19
2023-05-05T04:43:41.366Z,6.80
2023-05-05T04:44:41.346Z,6.40
2023-05-05T04:45:41.335Z,6.59
2023-05-05T04:46:41.434Z,6.69
2023-05-05T04:47:41.333Z,6.80
2023-05-05T04:48:41.289Z,6.09
2023-05-05T04:49:41.287Z,6.09
2023-05-05T04:50:41.267Z,6.00
2023-05-05T04:51:41.252Z,5.50
2023-05-05T04:52:41.265Z,5.80
2023-05-05T04:53:41.226Z,6.09
2023-05-05T04:54:41.212Z,5.80
2023-05-05T04:55:41.198Z,5.19
2023-05-05T04:56:41.186Z,5.40
2023-05-05T04:57:41.178Z,5.40
2023-05-05T04:58:41.162Z,5.40
2023-05-05T04:59:41.148Z,5.30
2023-05-05T05:00:41.135Z,5.09
2023-05-05T05:01:41.214Z,4.50
2023-05-05T05:02:41.222Z,4.69
2023-05-05T05:03:41.170Z,4.90
2023-05-05T05:04:41.088Z,4.69
2023-05-05T05:05:41.071Z,5.00
2023-05-05T05:06:41.056Z,4.30
2023-05-05T05:07:41.060Z,4.30
2023-05-05T05:08:41.065Z,4.19
2023-05-05T05:09:41.017Z,4.00
2023-05-05T05:10:41.007Z,4.30
2023-05-05T05:11:40.993Z,5.09
2023-05-05T05:12:41.000Z,5.09
2023-05-05T05:13:40.976Z,5.30
2023-05-05T05:14:40.955Z,5.50
2023-05-05T05:15:40.946Z,5.50
2023-05-05T05:16:40.962Z,6.40
2023-05-05T05:17:40.960Z,6.80
2023-05-05T05:18:40.901Z,6.59
2023-05-05T05:19:40.900Z,6.30
2023-05-05T05:20:40.878Z,7.30
2023-05-05T05:21:40.855Z,6.90
2023-05-05T05:22:40.849Z,7.00
2023-05-05T05:23:40.832Z,6.90
2023-05-05T05:24:40.844Z,7.50
2023-05-05T05:25:40.807Z,8.50
2023-05-05T05:26:40.794Z,9.39
2023-05-05T05:27:40.780Z,8.69
2023-05-05T05:28:40.773Z,8.50
2023-05-05T05:29:40.760Z,8.10
2023-05-05T05:30:40.741Z,8.19
2023-05-05T05:31:40.742Z,10.50
2023-05-05T05:32:40.720Z,11.50
2023-05-05T05:33:40.705Z,11.80
2023-05-05T05:34:40.690Z,8.69
2023-05-05T05:35:40.678Z,9.80
2023-05-05T05:36:40.676Z,11.10
2023-05-05T05:37:40.649Z,10.80
2023-05-05T05:38:40.640Z,12.30
2023-05-05T05:39:43.350Z,11.10
2023-05-05T05:40:40.633Z,11.30
2023-05-05T05:41:40.597Z,11.60
2023-05-05T05:42:40.585Z,12.80
2023-05-05T05:43:40.574Z,14.80
2023-05-05T05:44:40.564Z,14.19
2023-05-05T05:45:40.648Z,15.19
2023-05-05T05:46:40.642Z,15.39
2023-05-05T05:47:40.562Z,14.69
2023-05-05T05:48:40.555Z,14.39
2023-05-05T05:49:40.507Z,13.89
2023-05-05T05:50:40.481Z,14.00
2023-05-05T05:51:40.470Z,12.39
2023-05-05T05:52:40.455Z,10.69
2023-05-05T05:53:40.445Z,12.89
2023-05-05T05:54:40.444Z,11.00
2023-05-05T05:55:40.425Z,10.60
2023-05-05T05:56:40.515Z,10.39
2023-05-05T05:57:40.386Z,9.30
2023-05-05T05:58:40.389Z,10.00
2023-05-05T05:59:40.365Z,10.89
2023-05-05T06:00:40.349Z,10.69
2023-05-05T06:01:40.424Z,6.90
2023-05-05T06:02:40.389Z,6.09
2023-05-05T06:03:40.350Z,6.40
2023-05-05T06:04:40.411Z,5.50
2023-05-05T06:05:40.284Z,5.40
2023-05-05T06:06:40.272Z,5.09
2023-05-05T06:07:40.259Z,5.00
2023-05-05T06:08:40.249Z,5.59
2023-05-05T06:09:40.239Z,6.69
2023-05-05T06:10:40.244Z,6.90
2023-05-05T06:11:40.205Z,6.80
2023-05-05T06:12:40.259Z,6.19
2023-05-05T06:13:40.177Z,6.69
2023-05-05T06:14:40.174Z,7.59
2023-05-05T06:15:40.171Z,7.59
2023-05-05T06:16:40.145Z,7.40
2023-05-05T06:17:40.199Z,6.59
2023-05-05T06:18:40.119Z,6.80
2023-05-05T06:19:40.106Z,7.30
2023-05-05T06:20:40.109Z,6.40
2023-05-05T06:21:40.078Z,6.80
2023-05-05T06:22:40.078Z,6.40
2023-05-05T06:23:40.050Z,7.09
2023-05-05T06:24:40.048Z,6.09
2023-05-05T06:25:40.035Z,6.59
2023-05-05T06:26:40.015Z,5.40
2023-05-05T06:27:40.004Z,6.30
2023-05-05T06:28:40.020Z,6.19
2023-05-05T06:29:39.978Z,6.19
2023-05-05T06:30:39.969Z,6.19
2023-05-05T06:31:40.002Z,6.09
2023-05-05T06:32:39.990Z,6.40
2023-05-05T06:33:39.940Z,6.19
2023-05-05T06:34:39.917Z,6.19
2023-05-05T06:35:39.905Z,5.30
2023-05-05T06:36:39.963Z,5.40
2023-05-05T06:37:39.906Z,6.30
2023-05-05T06:38:39.873Z,5.09
2023-05-05T06:39:39.852Z,5.69
2023-05-05T06:40:39.850Z,5.69
2023-05-05T06:41:39.828Z,6.30
2023-05-05T06:42:39.826Z,7.40
2023-05-05T06:43:39.824Z,6.80
2023-05-05T06:44:39.848Z,6.19
2023-05-05T06:45:40.052Z,5.09
2023-05-05T06:46:39.803Z,4.30
2023-05-05T06:47:39.804Z,4.69
2023-05-05T06:48:39.742Z,5.00
2023-05-05T06:49:39.728Z,6.09
2023-05-05T06:50:39.720Z,5.50
2023-05-05T06:51:42.124Z,6.00
2023-05-05T06:52:39.689Z,6.40
2023-05-05T06:53:39.680Z,6.40
2023-05-05T06:54:39.671Z,6.30
2023-05-05T06:55:39.657Z,6.09
2023-05-05T06:56:39.645Z,5.80
2023-05-05T06:57:39.646Z,6.19
2023-05-05T06:58:39.630Z,4.50
2023-05-05T06:59:39.602Z,5.19
2023-05-05T07:00:39.806Z,4.69
2023-05-05T07:01:39.583Z,5.69
2023-05-05T07:02:39.587Z,4.80
2023-05-05T07:03:39.578Z,5.00
2023-05-05T07:04:39.543Z,6.30
2023-05-05T07:05:39.532Z,6.09
2023-05-05T07:06:39.519Z,5.69
2023-05-05T07:07:39.504Z,5.69
2023-05-05T07:08:39.498Z,7.90
2023-05-05T07:09:39.478Z,6.50
2023-05-05T07:10:39.475Z,6.69
2023-05-05T07:11:39.454Z,8.69
2023-05-05T07:12:39.488Z,8.10
2023-05-05T07:13:39.428Z,6.19
2023-05-05T07:14:39.414Z,7.80
2023-05-05T07:15:39.403Z,7.40
2023-05-05T07:16:39.544Z,7.09
2023-05-05T07:17:39.428Z,9.10
2023-05-05T07:18:39.368Z,7.80
2023-05-05T07:19:39.369Z,7.40
2023-05-05T07:20:39.346Z,8.19
2023-05-05T07:21:39.334Z,8.30
2023-05-05T07:22:39.323Z,8.89
2023-05-05T07:23:39.302Z,7.50
2023-05-05T07:24:39.293Z,5.19
2023-05-05T07:25:39.292Z,7.40
2023-05-05T07:26:39.275Z,6.90
2023-05-05T07:27:39.256Z,6.59
2023-05-05T07:28:39.254Z,6.19
2023-05-05T07:29:39.238Z,6.19
2023-05-05T07:30:39.226Z,6.40
2023-05-05T07:31:39.253Z,6.09
2023-05-05T07:32:39.448Z,5.69
2023-05-05T07:33:39.197Z,5.90
2023-05-05T07:34:39.180Z,7.30
2023-05-05T07:35:39.152Z,7.00
2023-05-05T07:36:39.147Z,7.69
2023-05-05T07:37:39.145Z,8.10
2023-05-05T07:38:39.123Z,7.50
2023-05-05T07:39:39.108Z,5.80
2023-05-05T07:40:39.103Z,6.50
2023-05-05T07:41:39.079Z,8.00
2023-05-05T07:42:39.071Z,8.30
2023-05-05T07:43:39.618Z,7.90
2023-05-05T07:44:39.042Z,4.69
2023-05-05T07:45:39.061Z,6.30
2023-05-05T07:46:39.028Z,7.00
2023-05-05T07:47:39.025Z,5.50
2023-05-05T07:48:39.128Z,5.40
2023-05-05T07:49:38.986Z,5.59
2023-05-05T07:50:38.976Z,5.69
2023-05-05T07:51:38.960Z,6.09
2023-05-05T07:52:48.471Z,6.09
2023-05-05T07:53:40.931Z,6.09
2023-05-05T07:54:38.930Z,6.50
2023-05-05T07:55:38.906Z,6.00
2023-05-05T07:56:38.895Z,6.80
2023-05-05T07:57:38.884Z,6.09
2023-05-05T07:58:38.890Z,6.09
2023-05-05T07:59:38.857Z,6.69
2023-05-05T08:00:38.886Z,6.69
2023-05-05T08:01:38.836Z,6.19
2023-05-05T08:02:38.879Z,6.09
2023-05-05T08:03:39.007Z,6.00
2023-05-05T08:04:38.946Z,5.80
2023-05-05T08:05:38.785Z,5.80
2023-05-05T08:06:38.770Z,6.00
2023-05-05T08:07:38.760Z,6.00
2023-05-05T08:08:38.758Z,6.30
2023-05-05T08:09:38.735Z,6.09
2023-05-05T08:10:38.718Z,6.19
2023-05-05T08:11:38.714Z,6.30
2023-05-05T08:12:38.725Z,6.40
2023-05-05T08:13:38.685Z,5.69
2023-05-05T08:14:38.684Z,6.30
2023-05-05T08:15:38.707Z,6.09
2023-05-05T08:16:38.648Z,5.80
2023-05-05T08:17:38.664Z,5.40
2023-05-05T08:18:38.624Z,5.50
2023-05-05T08:19:38.611Z,5.80
2023-05-05T08:20:38.751Z,6.19
2023-05-05T08:21:38.592Z,6.40
2023-05-05T08:22:38.586Z,6.40
2023-05-05T08:23:38.570Z,7.30
2023-05-05T08:24:38.559Z,6.90
2023-05-05T08:25:38.542Z,6.50
2023-05-05T08:26:38.538Z,7.50
2023-05-05T08:27:38.537Z,6.80
2023-05-05T08:28:38.533Z,7.19
2023-05-05T08:29:38.523Z,9.00
2023-05-05T08:30:38.526Z,7.69
2023-05-05T08:31:38.505Z,8.50
2023-05-05T08:32:38.549Z,8.00
2023-05-05T08:33:38.466Z,7.90
2023-05-05T08:34:38.428Z,7.69
2023-05-05T08:35:38.433Z,6.80
2023-05-05T08:36:38.539Z,7.30
2023-05-05T08:37:38.415Z,7.00
2023-05-05T08:38:38.392Z,6.00
2023-05-05T08:39:38.375Z,5.59
2023-05-05T08:40:38.392Z,5.40
2023-05-05T08:41:38.352Z,5.80
2023-05-05T08:42:39.470Z,5.59
2023-05-05T08:43:38.332Z,5.40
2023-05-05T08:44:38.310Z,5.59
2023-05-05T08:45:38.300Z,5.40
2023-05-05T08:46:38.297Z,5.69
2023-05-05T08:47:38.304Z,6.59
2023-05-05T08:48:38.266Z,6.40
2023-05-05T08:49:38.252Z,5.40
2023-05-05T08:50:38.238Z,5.00
2023-05-05T08:51:38.227Z,5.69
2023-05-05T08:52:38.335Z,5.30
2023-05-05T08:53:38.201Z,5.50
2023-05-05T08:54:38.195Z,5.59
2023-05-05T08:55:38.185Z,5.80
2023-05-05T08:56:38.171Z,5.40
2023-05-05T08:57:38.159Z,5.50
2023-05-05T08:58:38.149Z,5.50
2023-05-05T08:59:38.146Z,4.90
2023-05-05T09:00:38.112Z,5.30
2023-05-05T09:01:38.217Z,5.09
2023-05-05T09:02:38.166Z,5.59
2023-05-05T09:03:38.221Z,6.50
2023-05-05T09:04:38.067Z,6.09
2023-05-05T09:05:38.069Z,6.09
2023-05-05T09:06:38.058Z,6.00
2023-05-05T09:07:38.030Z,6.30
2023-05-05T09:08:38.115Z,5.50
2023-05-05T09:09:38.006Z,5.50
2023-05-05T09:10:37.998Z,5.40
2023-05-05T09:11:37.982Z,5.09
2023-05-05T09:12:38.053Z,5.00
2023-05-05T09:13:37.966Z,5.59
2023-05-05T09:14:37.948Z,5.30
2023-05-05T09:15:37.934Z,5.69
2023-05-05T09:16:37.981Z,5.09
2023-05-05T09:17:38.014Z,5.80
2023-05-05T09:18:37.897Z,5.30
2023-05-05T09:19:37.895Z,5.30
2023-05-05T09:20:37.873Z,4.90
2023-05-05T09:21:37.865Z,5.19
2023-05-05T09:22:37.853Z,5.80
2023-05-05T09:23:37.877Z,5.69
2023-05-05T09:24:37.927Z,6.09
2023-05-05T09:25:37.816Z,6.40
2023-05-05T09:26:37.817Z,5.69
2023-05-05T09:27:37.797Z,5.50
2023-05-05T09:28:37.789Z,4.80
2023-05-05T09:29:37.776Z,4.90
2023-05-05T09:30:37.803Z,4.90
2023-05-05T09:31:37.766Z,4.90
2023-05-05T09:32:37.764Z,5.40
2023-05-05T09:33:37.727Z,5.30
2023-05-05T09:34:37.728Z,6.00
2023-05-05T09:35:37.705Z,5.19
2023-05-05T09:36:37.692Z,5.30
2023-05-05T09:37:37.679Z,5.19
2023-05-05T09:38:37.668Z,5.59
2023-05-05T09:39:37.675Z,6.09
2023-05-05T09:40:37.731Z,5.69
2023-05-05T09:41:37.684Z,5.80
2023-05-05T09:42:37.625Z,5.40
2023-05-05T09:43:37.613Z,5.50
2023-05-05T09:44:37.593Z,6.40
2023-05-05T09:45:37.585Z,5.69
2023-05-05T09:46:37.620Z,5.40
2023-05-05T09:47:37.652Z,5.40
2023-05-05T09:48:37.554Z,5.80
2023-05-05T09:49:37.543Z,5.40
2023-05-05T09:50:37.528Z,5.30
2023-05-05T09:51:37.513Z,5.69
2023-05-05T09:52:37.503Z,6.80
2023-05-05T09:53:37.489Z,5.59
2023-05-05T09:54:37.473Z,5.59
2023-05-05T09:55:37.465Z,5.69
2023-05-05T09:56:37.598Z,5.69
2023-05-05T09:57:37.438Z,5.59
2023-05-05T09:58:37.518Z,5.69
2023-05-05T09:59:37.414Z,5.00
2023-05-05T10:00:37.498Z,5.40
2023-05-05T10:01:37.422Z,5.30
2023-05-05T10:02:37.390Z,5.40
2023-05-05T10:03:37.365Z,5.50
2023-05-05T10:04:37.364Z,6.09
2023-05-05T10:05:37.340Z,6.30
2023-05-05T10:06:37.328Z,5.40
2023-05-05T10:07:37.318Z,5.59
2023-05-05T10:08:37.318Z,5.40
2023-05-05T10:10:37.277Z,5.30
2023-05-05T10:11:37.278Z,5.30
2023-05-05T10:12:37.373Z,5.00
2023-05-05T10:13:37.287Z,5.00
2023-05-05T10:14:37.245Z,5.19
2023-05-05T10:15:37.227Z,5.00
2023-05-05T10:16:37.257Z,5.09
2023-05-05T10:17:37.337Z,5.19
2023-05-05T10:18:37.242Z,6.80
2023-05-05T10:19:37.189Z,5.19
2023-05-05T10:20:37.188Z,5.50
2023-05-05T10:21:37.152Z,5.19
2023-05-05T10:22:37.139Z,5.09
2023-05-05T10:23:37.128Z,5.19
2023-05-05T10:24:37.129Z,5.30
2023-05-05T10:25:37.107Z,6.09
2023-05-05T10:26:37.094Z,5.50
2023-05-05T10:27:37.086Z,5.30
2023-05-05T10:28:37.168Z,5.80
2023-05-05T10:29:37.066Z,5.40
2023-05-05T10:30:37.068Z,5.40
2023-05-05T10:31:37.095Z,5.59
2023-05-05T10:32:56.059Z,5.19
2023-05-05T10:33:39.130Z,5.09
2023-05-05T10:34:37.021Z,5.50
2023-05-05T10:35:36.994Z,4.90
2023-05-05T10:36:36.978Z,5.40
2023-05-05T10:37:36.974Z,5.69
2023-05-05T10:38:36.959Z,6.19
2023-05-05T10:39:36.958Z,8.10
2023-05-05T10:40:36.938Z,5.19
2023-05-05T10:41:36.930Z,5.30
2023-05-05T10:42:36.912Z,6.00
2023-05-05T10:43:36.901Z,5.59
2023-05-05T10:44:37.008Z,5.19
2023-05-05T10:45:36.949Z,5.30
2023-05-05T10:46:36.978Z,6.00
2023-05-05T10:47:36.918Z,6.09
2023-05-05T10:48:36.872Z,5.19
2023-05-05T10:49:36.850Z,5.40
2023-05-05T10:50:36.816Z,7.50
2023-05-05T10:51:40.506Z,7.19
2023-05-05T10:52:36.795Z,7.80
2023-05-05T10:53:36.800Z,5.09
2023-05-05T10:54:38.089Z,5.59
2023-05-05T10:55:36.765Z,5.59
2023-05-05T10:56:36.754Z,9.00
2023-05-05T10:57:36.741Z,7.59
2023-05-05T10:58:47.026Z,6.50
2023-05-05T10:59:39.019Z,7.30
2023-05-05T11:00:36.844Z,7.40
2023-05-05T11:01:36.853Z,7.69
2023-05-05T11:02:36.706Z,8.69
2023-05-05T11:03:36.691Z,8.50
2023-05-05T11:04:36.647Z,7.80
2023-05-05T11:05:36.636Z,5.30
2023-05-05T11:06:36.622Z,5.50
2023-05-05T11:07:36.609Z,5.59
2023-05-05T11:08:36.598Z,6.00
2023-05-05T11:09:36.590Z,5.59
2023-05-05T11:10:36.580Z,5.59
2023-05-05T11:11:36.561Z,6.90
2023-05-05T11:12:38.776Z,5.80
2023-05-05T11:13:36.536Z,5.50
2023-05-05T11:14:36.521Z,5.69
2023-05-05T11:15:36.523Z,5.69
2023-05-05T11:16:36.673Z,5.30
2023-05-05T11:17:36.497Z,5.19
2023-05-05T11:18:36.527Z,5.40
2023-05-05T11:19:36.514Z,5.19
2023-05-05T11:20:36.448Z,5.80
2023-05-05T11:21:36.442Z,5.59
2023-05-05T11:22:36.423Z,5.80
2023-05-05T11:23:36.415Z,5.59
2023-05-05T11:24:36.405Z,5.59
2023-05-05T11:25:36.684Z,5.80
2023-05-05T11:26:36.378Z,5.59
2023-05-05T11:27:36.372Z,5.69
2023-05-05T11:28:36.364Z,6.19
2023-05-05T11:29:36.345Z,5.69
2023-05-05T11:30:36.329Z,6.00
2023-05-05T11:31:36.370Z,6.30
2023-05-05T11:32:36.378Z,6.19
2023-05-05T11:33:36.293Z,6.19
2023-05-05T11:34:36.287Z,6.19
2023-05-05T11:35:36.270Z,5.50
2023-05-05T11:36:36.257Z,5.30
2023-05-05T11:37:36.246Z,4.50
2023-05-05T11:38:36.240Z,4.50
2023-05-05T11:39:36.221Z,5.09
2023-05-05T11:40:36.220Z,5.19
2023-05-05T11:41:36.205Z,5.30
2023-05-05T11:42:36.201Z,6.19
2023-05-05T11:43:36.174Z,5.30
2023-05-05T11:44:36.157Z,6.00
2023-05-05T11:45:36.155Z,5.40
2023-05-05T11:46:36.266Z,5.40
2023-05-05T11:47:36.141Z,4.90
2023-05-05T11:48:36.140Z,5.50
2023-05-05T11:49:36.113Z,5.40
2023-05-05T11:50:36.118Z,5.19
2023-05-05T11:51:36.077Z,4.80
2023-05-05T11:52:36.064Z,4.90
2023-05-05T11:53:36.053Z,5.40
2023-05-05T11:54:36.065Z,5.30
2023-05-05T11:55:36.029Z,5.59
2023-05-05T11:56:36.024Z,4.90
2023-05-05T11:57:36.014Z,4.50
2023-05-05T11:58:35.996Z,5.00
2023-05-05T11:59:35.982Z,6.50
2023-05-05T12:00:35.967Z,6.09
2023-05-05T12:01:35.954Z,5.30
2023-05-05T12:02:36.072Z,5.00
2023-05-05T12:03:36.210Z,5.00
2023-05-05T12:04:36.117Z,5.00
2023-05-05T12:05:36.895Z,5.00
2023-05-05T12:06:35.972Z,5.50
2023-05-05T12:07:35.986Z,5.19
2023-05-05T12:08:35.988Z,5.19
2023-05-05T12:09:35.940Z,5.09
2023-05-05T12:10:35.854Z,5.00
2023-05-05T12:11:35.844Z,4.90
2023-05-05T12:12:35.873Z,5.19
2023-05-05T12:13:35.817Z,5.00
2023-05-05T12:14:35.802Z,5.09
2023-05-05T12:15:35.792Z,5.50
2023-05-05T12:16:35.850Z,5.59
2023-05-05T12:17:35.815Z,5.40
2023-05-05T12:18:35.753Z,5.50
2023-05-05T12:19:35.775Z,5.30
2023-05-05T12:20:35.979Z,5.30
2023-05-05T12:21:35.718Z,6.00
2023-05-05T12:22:35.710Z,5.59
2023-05-05T12:23:35.690Z,5.40
2023-05-05T12:24:35.685Z,5.69
2023-05-05T12:25:35.669Z,5.40
2023-05-05T12:26:35.659Z,5.30
2023-05-05T12:27:35.645Z,5.80
2023-05-05T12:28:35.636Z,5.50
2023-05-05T12:29:35.637Z,5.69
2023-05-05T12:30:35.707Z,5.69
2023-05-05T12:31:35.630Z,5.59
2023-05-05T12:32:35.612Z,5.69
2023-05-05T12:33:35.575Z,6.19
2023-05-05T12:34:35.569Z,7.80
2023-05-05T12:35:35.606Z,6.50
2023-05-05T12:36:35.565Z,6.59
2023-05-05T12:37:35.525Z,7.00
2023-05-05T12:38:35.522Z,4.69
2023-05-05T12:39:35.505Z,5.19
2023-05-05T12:40:35.503Z,5.50
2023-05-05T12:41:35.492Z,5.30
2023-05-05T12:42:35.467Z,5.19
2023-05-05T12:43:35.451Z,5.40
2023-05-05T12:44:35.480Z,5.90
2023-05-05T12:45:35.527Z,6.09
2023-05-05T12:46:35.451Z,6.50
2023-05-05T12:47:35.425Z,6.59
2023-05-05T12:48:35.399Z,6.19
2023-05-05T12:49:35.380Z,5.59
2023-05-05T12:50:35.367Z,6.19
2023-05-05T12:51:35.373Z,5.80
2023-05-05T12:52:35.439Z,5.50
2023-05-05T12:53:35.349Z,6.30
2023-05-05T12:54:35.337Z,5.80
2023-05-05T12:55:35.306Z,6.00
2023-05-05T12:56:35.299Z,6.00
2023-05-05T12:57:35.284Z,5.50
2023-05-05T12:58:35.277Z,6.00
2023-05-05T12:59:35.254Z,5.80
2023-05-05T13:00:35.279Z,5.69
2023-05-05T13:01:35.294Z,5.09
2023-05-05T13:02:35.339Z,5.00
2023-05-05T13:03:35.302Z,5.59
2023-05-05T13:04:35.194Z,5.30
2023-05-05T13:05:35.187Z,4.90
2023-05-05T13:06:35.178Z,5.19
2023-05-05T13:07:35.174Z,4.90
2023-05-05T13:08:35.175Z,5.59
2023-05-05T13:09:35.132Z,5.09
2023-05-05T13:10:35.126Z,4.90
2023-05-05T13:11:35.110Z,5.00
2023-05-05T13:12:35.137Z,4.80
2023-05-05T13:13:35.089Z,4.80
2023-05-05T13:14:35.192Z,5.69
2023-05-05T13:15:35.097Z,5.80
2023-05-05T13:16:35.053Z,7.30
2023-05-05T13:17:35.150Z,7.30
2023-05-05T13:18:35.026Z,6.90
2023-05-05T13:19:35.021Z,5.80
2023-05-05T13:20:35.001Z,6.19